Time;durP1;ratioP1;P1;durP2;ratioP2;P2;SDS_P1;SDS_P2;PMS_P1;PMS_P2;Temp;Humidity;BMP_temperature;BMP_pressure;BME280_temperature;BME280_humidity;BME280_pressure;Samples;Min_cycle;Max_cycle;Signal;HPM_P1;HPM_P2
2023/07/04 00:01:57;;;;;;;4.85;2.15;;;20.50;46.80;;;;;;4840410;29;20060;-50
2023/07/04 00:04:29;;;;;;;8.03;1.93;;;20.40;47.20;;;;;;4841861;29;20040;-49
2023/07/04 00:07:00;;;;;;;8.15;2.40;;;20.40;47.00;;;;;;4841314;29;20056;-49
2023/07/04 00:09:28;;;;;;;7.45;2.28;;;20.30;47.10;;;;;;4841272;29;20042;-50
2023/07/04 00:11:56;;;;;;;12.80;4.25;;;20.30;47.30;;;;;;4840641;29;20037;-49
2023/07/04 00:14:25;;;;;;;7.03;2.78;;;20.30;47.40;;;;;;4841571;29;20090;-49
2023/07/04 00:16:58;;;;;;;5.63;2.30;;;20.20;47.50;;;;;;4841148;29;20052;-51
2023/07/04 00:19:29;;;;;;;5.95;2.22;;;20.20;47.70;;;;;;4845058;29;20085;-49
2023/07/04 00:21:57;;;;;;;7.75;2.33;;;20.20;47.80;;;;;;4840507;29;20046;-50
2023/07/04 00:24:23;;;;;;;4.38;1.90;;;20.20;48.00;;;;;;4840555;29;20467;-49
2023/07/04 00:26:50;;;;;;;5.18;1.90;;;20.10;48.10;;;;;;4840913;29;20079;-51
2023/07/04 00:29:17;;;;;;;6.13;1.90;;;20.10;48.20;;;;;;4839971;29;20050;-49
2023/07/04 00:31:45;;;;;;;6.85;2.22;;;20.10;48.40;;;;;;4840018;29;20117;-51
2023/07/04 00:34:14;;;;;;;5.82;2.05;;;20.00;48.40;;;;;;4841117;29;20091;-50
2023/07/04 00:36:43;;;;;;;7.60;1.80;;;20.00;48.60;;;;;;4840725;29;20073;-51
2023/07/04 00:39:12;;;;;;;6.22;2.10;;;20.00;49.00;;;;;;4841085;29;20050;-50
2023/07/04 00:41:43;;;;;;;7.20;2.92;;;19.90;48.70;;;;;;4839847;29;20065;-50
2023/07/04 00:44:30;;;;;;;5.30;2.10;;;19.90;49.10;;;;;;4840064;29;20257;-50
2023/07/04 00:47:15;;;;;;;11.50;3.17;;;19.90;49.70;;;;;;4840590;29;20159;-49
2023/07/04 00:49:48;;;;;;;5.03;2.53;;;19.90;49.20;;;;;;4827236;29;20053;-50
2023/07/04 00:52:17;;;;;;;10.77;3.05;;;19.90;49.60;;;;;;4840822;29;20053;-49
2023/07/04 00:54:52;;;;;;;10.68;2.28;;;19.80;49.60;;;;;;4840021;29;20073;-50
2023/07/04 00:57:33;;;;;;;8.02;2.20;;;19.80;49.70;;;;;;4842522;29;20069;-50
2023/07/04 01:00:23;;;;;;;5.80;2.63;;;19.80;50.00;;;;;;4840462;29;20084;-51
2023/07/04 01:02:59;;;;;;;9.63;2.55;;;19.80;50.30;;;;;;4839780;29;20053;-49
2023/07/04 01:05:34;;;;;;;6.88;3.45;;;19.70;49.80;;;;;;4840714;29;20101;-50
2023/07/04 01:08:11;;;;;;;7.10;2.50;;;19.70;50.00;;;;;;4838876;29;20129;-49
2023/07/04 01:10:42;;;;;;;5.07;1.90;;;19.70;50.40;;;;;;4832154;29;20050;-50
2023/07/04 01:13:43;;;;;;;8.13;2.70;;;19.70;49.80;;;;;;4839974;29;20060;-49
2023/07/04 01:16:18;;;;;;;4.30;1.88;;;19.60;50.80;;;;;;4844110;29;20145;-49
2023/07/04 01:18:49;;;;;;;8.73;2.58;;;19.60;50.40;;;;;;4838707;29;20141;-49
2023/07/04 01:21:19;;;;;;;8.25;2.58;;;19.60;50.50;;;;;;4853467;29;20069;-50
2023/07/04 01:24:12;;;;;;;5.50;2.58;;;19.50;50.60;;;;;;4838828;29;20072;-50
2023/07/04 01:26:44;;;;;;;8.43;2.28;;;19.50;51.00;;;;;;4840287;29;20046;-50
2023/07/04 01:29:15;;;;;;;6.45;2.30;;;19.50;51.00;;;;;;4840220;29;20082;-49
2023/07/04 01:31:43;;;;;;;5.82;2.30;;;19.50;50.90;;;;;;4839097;29;20511;-49
2023/07/04 01:34:13;;;;;;;7.88;2.20;;;19.40;50.80;;;;;;4834322;29;20477;-50
2023/07/04 01:36:41;;;;;;;8.10;2.70;;;19.40;51.10;;;;;;4838624;29;20077;-49
2023/07/04 01:39:14;;;;;;;12.60;2.10;;;19.40;51.40;;;;;;4853653;29;20049;-50
2023/07/04 01:41:49;;;;;;;5.22;2.20;;;19.40;51.60;;;;;;4824351;29;20050;-50
2023/07/04 01:44:16;;;;;;;;;;;19.30;51.80;;;;;;4840224;29;20416;-52
2023/07/04 01:46:44;;;;;;;9.20;3.75;;;19.40;50.60;;;;;;4838137;29;20571;-51
2023/07/04 01:49:11;;;;;;;8.07;2.13;;;19.30;51.20;;;;;;4838652;29;20045;-49
2023/07/04 01:51:40;;;;;;;7.72;2.47;;;19.30;51.50;;;;;;4839057;29;20224;-49
2023/07/04 01:54:16;;;;;;;6.07;2.53;;;19.20;51.90;;;;;;4838864;29;20049;-49
2023/07/04 01:56:52;;;;;;;5.80;2.45;;;19.20;52.00;;;;;;4839453;29;20060;-49
2023/07/04 01:59:22;;;;;;;6.30;2.35;;;19.20;52.20;;;;;;4837485;29;20053;-50
2023/07/04 02:01:49;;;;;;;6.03;2.75;;;19.20;52.10;;;;;;4838071;29;20098;-51
2023/07/04 02:04:16;;;;;;;7.40;2.60;;;19.20;52.30;;;;;;4837467;29;20500;-50
2023/07/04 02:06:43;;;;;;;6.82;2.83;;;19.20;52.40;;;;;;4837894;29;20044;-49
2023/07/04 02:09:10;;;;;;;7.57;2.50;;;19.10;52.40;;;;;;4838715;29;20077;-49
2023/07/04 02:11:45;;;;;;;6.70;2.67;;;19.10;52.60;;;;;;4849282;29;20052;-49
2023/07/04 02:14:15;;;;;;;4.60;1.85;;;19.10;52.70;;;;;;4839538;29;20507;-50
2023/07/04 02:16:48;;;;;;;11.43;3.30;;;19.10;52.90;;;;;;4839543;29;20557;-51
2023/07/04 02:19:17;;;;;;;8.55;2.65;;;19.10;53.00;;;;;;4838213;29;20053;-49
2023/07/04 02:21:46;;;;;;;6.22;2.30;;;19.00;53.00;;;;;;4838717;29;20422;-50
2023/07/04 02:24:15;;;;;;;8.57;2.45;;;19.10;53.20;;;;;;4838150;29;20034;-51
2023/07/04 02:26:50;;;;;;;;;;;19.00;53.50;;;;;;4849215;29;20129;-51
2023/07/04 02:29:17;;;;;;;5.32;2.20;;;19.10;52.60;;;;;;4839239;29;20390;-51
2023/07/04 02:31:49;;;;;;;9.52;2.47;;;19.00;52.70;;;;;;4838113;29;20557;-49
2023/07/04 02:34:22;;;;;;;6.13;2.45;;;19.00;53.00;;;;;;4833365;29;20468;-49
2023/07/04 02:36:48;;;;;;;6.70;2.78;;;19.00;53.40;;;;;;4836888;29;20642;-49
2023/07/04 02:39:15;;;;;;;9.50;2.75;;;19.00;53.60;;;;;;4832572;29;20046;-49
2023/07/04 02:41:44;;;;;;;6.53;2.75;;;18.90;53.70;;;;;;4838625;29;20464;-52
2023/07/04 02:44:10;;;;;;;9.77;3.17;;;18.90;53.90;;;;;;4838866;29;20456;-49
2023/07/04 02:46:37;;;;;;;5.43;2.20;;;18.90;54.10;;;;;;4837094;29;20038;-50
2023/07/04 02:49:08;;;;;;;7.13;2.58;;;18.90;54.30;;;;;;4825235;29;20516;-50
2023/07/04 02:51:34;;;;;;;10.07;2.58;;;18.90;54.30;;;;;;4838096;29;20157;-50
2023/07/04 02:54:05;;;;;;;9.23;2.97;;;18.90;54.40;;;;;;4842239;29;20042;-49
2023/07/04 02:56:35;;;;;;;8.73;2.40;;;18.80;54.50;;;;;;4838255;29;20138;-50
2023/07/04 02:59:02;;;;;;;5.63;2.95;;;18.80;54.50;;;;;;4833697;29;20046;-50
2023/07/04 03:01:29;;;;;;;8.35;3.03;;;18.80;54.70;;;;;;4825130;29;20508;-50
2023/07/04 03:03:56;;;;;;;8.50;2.78;;;18.80;54.80;;;;;;4839128;29;20041;-49
2023/07/04 03:06:24;;;;;;;7.53;2.88;;;18.80;54.90;;;;;;4839900;29;20474;-49
2023/07/04 03:08:53;;;;;;;7.05;2.67;;;18.70;55.00;;;;;;4852861;29;20038;-51
2023/07/04 03:11:20;;;;;;;9.68;3.45;;;18.70;55.10;;;;;;4827321;29;20496;-50
2023/07/04 03:13:47;;;;;;;9.25;3.58;;;18.70;55.30;;;;;;4842384;29;20050;-50
2023/07/04 03:16:14;;;;;;;6.82;2.42;;;18.70;55.40;;;;;;4855004;29;20081;-50
2023/07/04 03:18:43;;;;;;;10.93;3.30;;;18.70;55.50;;;;;;4841242;29;20504;-50
2023/07/04 03:21:12;;;;;;;7.63;2.55;;;18.70;55.70;;;;;;4827173;29;20045;-49
2023/07/04 03:23:39;;;;;;;8.13;2.60;;;18.60;56.00;;;;;;4826006;29;20052;-49
2023/07/04 03:26:18;;;;;;;10.68;3.05;;;18.60;55.80;;;;;;4850014;29;20041;-49
2023/07/04 03:28:51;;;;;;;6.60;2.67;;;18.60;56.50;;;;;;4856424;29;20268;-50
2023/07/04 03:31:18;;;;;;;11.38;3.03;;;18.50;55.90;;;;;;4830630;29;20103;-50
2023/07/04 03:33:57;;;;;;;;;;;;;;;;;;;;;
2023/07/04 03:36:26;;;;;;;7.43;2.90;;;18.60;56.30;;;;;;4855933;29;20072;-50
2023/07/04 03:38:52;;;;;;;6.10;2.47;;;18.50;56.30;;;;;;4842345;29;20046;-50
2023/07/04 03:41:19;;;;;;;5.95;2.92;;;18.50;56.40;;;;;;4840808;29;20586;-49
2023/07/04 03:43:46;;;;;;;5.00;2.92;;;18.50;56.60;;;;;;4842558;29;20046;-50
2023/07/04 03:46:16;;;;;;;9.38;2.95;;;18.50;56.60;;;;;;4841893;29;20034;-50
2023/07/04 03:49:01;;;;;;;10.07;2.95;;;18.50;57.00;;;;;;4856491;29;20045;-50
2023/07/04 03:51:27;;;;;;;9.10;4.13;;;18.40;56.70;;;;;;4844234;29;20038;-51
2023/07/04 03:53:54;;;;;;;7.45;2.58;;;18.40;56.70;;;;;;4825584;29;20049;-50
2023/07/04 03:56:21;;;;;;;7.90;2.95;;;18.40;56.90;;;;;;4836001;29;20484;-50
2023/07/04 03:58:49;;;;;;;10.82;3.83;;;18.40;57.00;;;;;;4841963;29;20057;-51
2023/07/04 04:01:16;;;;;;;7.55;3.35;;;18.40;57.00;;;;;;4853595;29;20049;-50
2023/07/04 04:03:43;;;;;;;7.68;2.80;;;18.40;57.10;;;;;;4842099;29;20041;-50
2023/07/04 04:06:10;;;;;;;6.57;2.63;;;18.40;57.30;;;;;;4842250;29;20050;-49
2023/07/04 04:08:39;;;;;;;6.20;3.20;;;18.40;57.40;;;;;;4842014;29;20119;-49
2023/07/04 04:11:06;;;;;;;9.23;3.00;;;18.40;57.60;;;;;;4841200;29;20109;-53
2023/07/04 04:13:35;;;;;;;8.18;3.22;;;18.40;57.50;;;;;;4841951;29;20045;-52
2023/07/04 04:16:02;;;;;;;6.07;2.33;;;18.40;57.60;;;;;;4842880;29;20050;-50
2023/07/04 04:18:30;;;;;;;8.02;2.92;;;18.40;57.70;;;;;;4840949;29;20042;-49
2023/07/04 04:21:01;;;;;;;7.57;3.50;;;18.40;57.80;;;;;;4837069;29;20422;-50
2023/07/04 04:23:31;;;;;;;14.07;3.20;;;18.40;58.00;;;;;;4840621;29;20042;-52
2023/07/04 04:26:03;;;;;;;9.45;3.38;;;18.50;57.90;;;;;;4842107;29;20401;-50
2023/07/04 04:28:30;;;;;;;7.90;3.05;;;18.50;58.10;;;;;;4840700;29;20050;-49
2023/07/04 04:30:56;;;;;;;9.68;3.00;;;18.60;57.90;;;;;;4841121;29;20042;-49
2023/07/04 04:33:23;;;;;;;7.95;2.70;;;18.60;57.90;;;;;;4840420;29;20456;-49
2023/07/04 04:35:52;;;;;;;11.82;3.20;;;18.70;58.00;;;;;;4841849;29;20053;-50
2023/07/04 04:38:24;;;;;;;6.40;2.83;;;18.70;57.90;;;;;;4841484;29;20058;-50
2023/07/04 04:40:50;;;;;;;9.10;2.42;;;18.70;57.70;;;;;;4840863;29;20050;-52
2023/07/04 04:43:21;;;;;;;5.15;2.75;;;18.80;57.90;;;;;;4840289;29;20133;-51
2023/07/04 04:45:48;;;;;;;7.43;2.42;;;18.80;57.80;;;;;;4841065;29;20657;-49
2023/07/04 04:48:18;;;;;;;8.93;3.30;;;18.80;57.80;;;;;;4840086;29;20075;-50
2023/07/04 04:50:46;;;;;;;11.07;2.72;;;18.90;57.80;;;;;;4839366;29;20050;-50
2023/07/04 04:53:14;;;;;;;8.20;2.47;;;18.90;57.80;;;;;;4839440;29;20045;-51
2023/07/04 04:55:42;;;;;;;6.68;3.40;;;19.00;57.80;;;;;;4841694;29;20106;-50
2023/07/04 04:58:11;;;;;;;9.02;3.13;;;19.00;57.60;;;;;;4840549;29;20565;-50
2023/07/04 05:00:45;;;;;;;12.15;2.67;;;19.00;57.60;;;;;;4839787;29;20086;-51
2023/07/04 05:03:14;;;;;;;7.00;2.88;;;19.00;57.50;;;;;;4839134;29;20058;-50
2023/07/04 05:05:41;;;;;;;8.35;2.40;;;19.10;57.60;;;;;;4842085;29;20125;-50
2023/07/04 05:08:10;;;;;;;8.60;2.58;;;19.10;57.60;;;;;;4840936;29;20094;-50
2023/07/04 05:10:41;;;;;;;6.32;2.80;;;19.10;57.70;;;;;;4840050;29;20500;-50
2023/07/04 05:13:09;;;;;;;11.38;2.92;;;19.10;57.80;;;;;;4840212;29;20083;-49
2023/07/04 05:15:35;;;;;;;7.10;2.67;;;19.10;57.80;;;;;;4841568;29;20046;-51
2023/07/04 05:18:02;;;;;;;9.43;3.72;;;19.20;57.90;;;;;;4840759;29;20070;-53
2023/07/04 05:20:40;;;;;;;6.10;2.78;;;19.20;57.80;;;;;;4840605;29;20060;-52
2023/07/04 05:23:14;;;;;;;9.18;3.40;;;19.20;57.60;;;;;;4835665;29;20567;-50
2023/07/04 05:25:42;;;;;;;8.85;3.65;;;19.20;57.80;;;;;;4840110;29;20076;-53
2023/07/04 05:28:09;;;;;;;8.25;2.97;;;19.30;57.70;;;;;;4839572;29;20050;-51
2023/07/04 05:30:36;;;;;;;9.52;3.63;;;19.20;57.60;;;;;;4836976;29;20046;-49
2023/07/04 05:33:07;;;;;;;8.95;3.95;;;19.20;57.60;;;;;;4836640;29;20411;-52
2023/07/04 05:35:36;;;;;;;8.10;2.90;;;19.20;58.40;;;;;;4839763;29;20129;-49
2023/07/04 05:38:02;;;;;;;12.07;4.80;;;19.20;57.90;;;;;;4839559;29;20457;-49
2023/07/04 05:40:31;;;;;;;8.55;4.00;;;19.20;57.90;;;;;;4838569;29;20145;-49
2023/07/04 05:43:02;;;;;;;13.75;3.90;;;19.20;57.90;;;;;;4836489;29;20145;-49
2023/07/04 05:45:31;;;;;;;8.77;3.37;;;19.30;58.00;;;;;;4837562;29;20075;-49
2023/07/04 05:48:03;;;;;;;10.27;3.58;;;19.30;57.90;;;;;;4837933;29;20321;-53
2023/07/04 05:50:33;;;;;;;10.18;2.92;;;19.30;58.30;;;;;;4838718;29;20042;-54
2023/07/04 05:53:02;;;;;;;8.38;3.38;;;19.30;58.10;;;;;;4837476;29;20085;-53
2023/07/04 05:55:29;;;;;;;8.02;2.97;;;19.40;58.20;;;;;;4839117;29;20456;-53
2023/07/04 05:57:58;;;;;;;13.02;3.40;;;19.40;58.00;;;;;;4839310;29;20400;-53
2023/07/04 06:00:25;;;;;;;11.00;3.50;;;19.40;57.80;;;;;;4839171;29;20082;-51
2023/07/04 06:03:03;;;;;;;7.55;3.20;;;19.40;57.80;;;;;;4838151;29;20128;-53
2023/07/04 06:05:30;;;;;;;11.82;3.92;;;19.50;58.00;;;;;;4833481;29;20098;-53
2023/07/04 06:07:58;;;;;;;9.25;2.97;;;19.50;57.90;;;;;;4839073;29;20050;-52
2023/07/04 06:10:29;;;;;;;7.32;2.70;;;19.60;57.70;;;;;;4839059;29;20103;-53
2023/07/04 06:12:57;;;;;;;11.25;3.17;;;19.60;57.50;;;;;;4837974;29;20114;-53
2023/07/04 06:15:27;;;;;;;13.40;3.65;;;19.60;57.50;;;;;;4844119;29;20489;-51
2023/07/04 06:17:56;;;;;;;6.00;3.35;;;19.60;57.40;;;;;;4838799;29;20106;-51
2023/07/04 06:20:27;;;;;;;7.93;3.87;;;19.60;57.60;;;;;;4838974;29;20057;-53
2023/07/04 06:22:57;;;;;;;9.77;3.08;;;19.60;57.90;;;;;;4837805;29;20071;-49
2023/07/04 06:25:24;;;;;;;10.18;3.88;;;19.60;57.80;;;;;;4841617;29;20069;-49
2023/07/04 06:27:51;;;;;;;10.93;3.13;;;19.60;57.60;;;;;;4840500;29;20471;-53
2023/07/04 06:30:17;;;;;;;9.60;3.22;;;19.70;57.30;;;;;;4839748;29;20120;-51
2023/07/04 06:32:44;;;;;;;9.27;4.00;;;19.70;57.20;;;;;;4838929;29;20133;-50
2023/07/04 06:35:10;;;;;;;10.70;3.65;;;19.70;57.20;;;;;;4839247;29;20050;-52
2023/07/04 06:37:40;;;;;;;8.90;3.50;;;19.70;57.40;;;;;;4839993;29;20053;-49
2023/07/04 06:40:10;;;;;;;8.10;2.90;;;19.70;57.30;;;;;;4838806;29;20045;-51
2023/07/04 06:42:37;;;;;;;6.25;3.17;;;19.80;57.20;;;;;;4823885;29;20050;-53
2023/07/04 06:45:05;;;;;;;15.00;4.03;;;19.80;57.20;;;;;;4846615;29;20045;-52
2023/07/04 06:47:37;;;;;;;8.60;2.83;;;19.90;57.00;;;;;;4839926;29;20754;-53
2023/07/04 06:50:05;;;;;;;7.72;2.85;;;19.90;57.00;;;;;;4837970;29;22079;-51
2023/07/04 06:52:35;;;;;;;15.05;3.30;;;20.00;56.70;;;;;;4837190;29;20629;-53
2023/07/04 06:55:03;;;;;;;10.82;3.03;;;20.10;56.80;;;;;;4839049;29;20145;-53
2023/07/04 06:57:29;;;;;;;11.13;3.40;;;20.10;56.60;;;;;;4839828;29;20540;-52
2023/07/04 06:59:56;;;;;;;9.63;3.70;;;20.30;56.70;;;;;;4838904;29;20056;-52
2023/07/04 07:02:27;;;;;;;13.65;3.75;;;20.30;56.70;;;;;;4837999;29;20610;-50
2023/07/04 07:04:54;;;;;;;8.60;3.22;;;20.50;56.20;;;;;;4846094;29;20042;-51
2023/07/04 07:07:25;;;;;;;9.30;3.55;;;20.50;55.90;;;;;;4839370;29;20042;-52
2023/07/04 07:09:51;;;;;;;11.10;3.92;;;20.60;55.90;;;;;;4838797;29;20094;-52
2023/07/04 07:12:18;;;;;;;10.68;3.95;;;20.60;55.60;;;;;;4837639;29;20514;-53
2023/07/04 07:14:47;;;;;;;8.57;3.40;;;20.70;55.60;;;;;;4838748;29;20046;-51
2023/07/04 07:17:14;;;;;;;11.68;3.53;;;20.70;55.50;;;;;;4839920;29;20075;-52
2023/07/04 07:19:43;;;;;;;8.10;3.33;;;20.70;55.30;;;;;;4839535;29;20042;-54
2023/07/04 07:22:16;;;;;;;8.57;3.08;;;20.80;55.30;;;;;;4846213;29;20041;-50
2023/07/04 07:24:43;;;;;;;10.07;3.53;;;20.80;55.10;;;;;;4837246;29;20072;-52
2023/07/04 07:27:11;;;;;;;8.70;2.95;;;20.80;54.90;;;;;;4840107;29;20046;-52
2023/07/04 07:29:40;;;;;;;6.32;2.60;;;20.90;54.70;;;;;;4838488;29;20049;-51
2023/07/04 07:32:15;;;;;;;7.28;3.03;;;20.90;54.60;;;;;;4838270;29;20049;-53
2023/07/04 07:34:46;;;;;;;9.03;2.50;;;21.00;54.50;;;;;;4832255;29;20094;-51
2023/07/04 07:37:14;;;;;;;6.13;2.22;;;21.00;53.50;;;;;;4839670;29;20512;-53
2023/07/04 07:39:42;;;;;;;7.97;2.40;;;21.00;53.00;;;;;;4837736;29;20078;-50
2023/07/04 07:42:12;;;;;;;6.15;2.03;;;21.10;52.70;;;;;;4838466;29;20457;-53
2023/07/04 07:44:39;;;;;;;5.75;2.58;;;21.10;52.40;;;;;;4838379;29;20064;-54
2023/07/04 07:47:10;;;;;;;5.57;2.55;;;21.10;52.50;;;;;;4838351;29;20034;-51
2023/07/04 07:49:37;;;;;;;9.45;2.42;;;21.20;52.80;;;;;;4832851;29;20768;-53
2023/07/04 07:52:06;;;;;;;5.07;1.98;;;21.20;52.20;;;;;;4837214;29;20088;-49
2023/07/04 07:54:36;;;;;;;4.78;2.22;;;21.30;52.70;;;;;;4834399;29;20411;-53
2023/07/04 07:57:03;;;;;;;6.65;2.83;;;21.30;51.90;;;;;;4839686;29;20507;-52
2023/07/04 07:59:30;;;;;;;7.72;2.53;;;21.30;51.50;;;;;;4838095;29;20052;-52
2023/07/04 08:02:01;;;;;;;5.90;2.00;;;21.40;51.20;;;;;;4838927;29;20697;-51
2023/07/04 08:04:27;;;;;;;4.03;2.00;;;21.40;50.80;;;;;;4841295;29;20075;-52
2023/07/04 08:06:59;;;;;;;4.43;1.65;;;21.40;51.20;;;;;;4843034;29;20151;-50
2023/07/04 08:09:26;;;;;;;8.55;2.47;;;21.40;50.70;;;;;;4840888;29;20070;-52
2023/07/04 08:11:52;;;;;;;5.13;2.28;;;21.50;51.00;;;;;;4841024;29;20518;-53
2023/07/04 08:14:19;;;;;;;6.85;2.55;;;21.60;51.00;;;;;;4841167;29;20173;-51
2023/07/04 08:16:51;;;;;;;5.75;2.22;;;21.60;50.30;;;;;;4842904;29;20456;-51
2023/07/04 08:19:23;;;;;;;3.15;1.92;;;21.60;49.80;;;;;;4840713;29;20468;-52
2023/07/04 08:21:54;;;;;;;6.13;1.95;;;21.60;48.80;;;;;;4846498;29;20054;-53
2023/07/04 08:24:23;;;;;;;5.18;2.22;;;21.70;49.20;;;;;;4839730;29;20133;-53
2023/07/04 08:26:54;;;;;;;5.85;2.22;;;21.70;49.30;;;;;;4841090;29;20062;-53
2023/07/04 08:29:20;;;;;;;10.13;4.03;;;21.70;49.60;;;;;;4840976;29;20045;-53
2023/07/04 08:31:48;;;;;;;5.40;1.98;;;21.70;49.60;;;;;;4840413;29;20598;-54
2023/07/04 08:34:17;;;;;;;10.65;2.35;;;21.70;50.30;;;;;;4841012;29;20099;-52
2023/07/04 08:36:47;;;;;;;6.00;2.05;;;21.80;49.40;;;;;;4841481;29;20103;-54
2023/07/04 08:39:17;;;;;;;4.10;1.63;;;21.90;48.80;;;;;;4840764;29;20050;-53
2023/07/04 08:41:56;;;;;;;5.97;2.90;;;21.90;48.40;;;;;;4839880;29;20158;-54
2023/07/04 08:44:48;;;;;;;5.68;1.95;;;22.00;48.30;;;;;;4838867;29;20057;-54
2023/07/04 08:47:27;;;;;;;5.03;1.75;;;22.00;46.60;;;;;;4842280;29;20045;-50
2023/07/04 08:49:59;;;;;;;3.25;1.67;;;22.00;47.40;;;;;;4840921;29;20063;-54
2023/07/04 08:52:52;;;;;;;3.88;1.30;;;22.00;46.60;;;;;;4837653;29;20054;-52
2023/07/04 08:55:22;;;;;;;3.67;1.63;;;22.00;46.30;;;;;;4841078;29;20046;-51
2023/07/04 08:58:00;;;;;;;3.20;1.58;;;22.10;47.10;;;;;;4841497;29;20050;-52
2023/07/04 09:00:41;;;;;;;3.50;1.50;;;22.10;46.70;;;;;;4841191;29;20453;-53
2023/07/04 09:03:35;;;;;;;2.58;1.38;;;22.20;46.60;;;;;;4839484;29;20623;-52
2023/07/04 09:06:12;;;;;;;3.95;2.00;;;22.20;46.70;;;;;;4836964;29;20049;-53
2023/07/04 09:08:39;;;;;;;4.13;2.10;;;22.20;46.40;;;;;;4840403;29;20531;-53
2023/07/04 09:11:16;;;;;;;5.10;1.80;;;22.30;46.50;;;;;;4840557;29;20038;-54
2023/07/04 09:13:47;;;;;;;4.70;2.30;;;22.30;46.70;;;;;;4839267;29;20578;-52
2023/07/04 09:16:24;;;;;;;6.00;1.98;;;22.40;46.40;;;;;;4841323;29;20106;-53
2023/07/04 09:19:05;;;;;;;3.17;1.45;;;22.40;46.30;;;;;;4840540;29;20106;-54
2023/07/04 09:21:42;;;;;;;8.60;2.08;;;22.40;45.40;;;;;;4844132;29;20061;-53
2023/07/04 09:24:11;;;;;;;3.90;1.60;;;22.40;45.60;;;;;;4839022;29;20129;-53
2023/07/04 09:26:54;;;;;;;3.00;1.80;;;22.40;45.70;;;;;;4841198;29;20042;-49
2023/07/04 09:29:25;;;;;;;4.07;1.67;;;22.30;45.90;;;;;;4840350;29;20631;-52
2023/07/04 09:31:58;;;;;;;3.85;1.50;;;22.30;45.90;;;;;;4840283;29;20061;-49
2023/07/04 09:34:49;;;;;;;3.10;1.75;;;22.30;46.70;;;;;;4839083;29;20098;-50
2023/07/04 09:37:19;;;;;;;3.50;1.58;;;22.40;46.10;;;;;;4841604;29;20069;-50
2023/07/04 09:39:46;;;;;;;5.35;1.65;;;22.40;45.80;;;;;;4840176;29;20073;-53
2023/07/04 09:42:19;;;;;;;5.07;2.05;;;22.40;46.00;;;;;;4839139;29;20045;-51
2023/07/04 09:45:09;;;;;;;3.80;1.90;;;22.40;45.20;;;;;;4840298;29;20104;-53
2023/07/04 09:47:47;;;;;;;3.67;1.50;;;22.50;45.10;;;;;;4841397;29;20434;-51
2023/07/04 09:50:36;;;;;;;5.00;2.22;;;22.50;44.40;;;;;;4839830;29;20046;-50
2023/07/04 09:53:16;;;;;;;4.35;1.65;;;22.60;44.40;;;;;;4836443;29;20049;-49
2023/07/04 09:56:01;;;;;;;4.13;1.30;;;22.60;44.40;;;;;;4834331;29;20052;-53
2023/07/04 09:58:31;;;;;;;4.78;2.03;;;22.70;44.00;;;;;;4840126;29;20511;-50
2023/07/04 10:01:16;;;;;;;2.65;1.25;;;22.70;43.90;;;;;;4839727;29;20125;-50
2023/07/04 10:03:49;;;;;;;3.78;1.40;;;22.80;43.10;;;;;;4838625;29;20126;-53
2023/07/04 10:06:33;;;;;;;4.65;1.42;;;22.90;43.20;;;;;;4839420;29;20033;-52
2023/07/04 10:09:09;;;;;;;3.28;1.45;;;23.00;42.60;;;;;;4839791;29;20089;-50
2023/07/04 10:11:45;;;;;;;6.50;1.85;;;23.00;43.10;;;;;;4839496;29;20567;-51
2023/07/04 10:14:13;;;;;;;6.80;2.05;;;23.10;43.40;;;;;;4839366;29;20038;-51
2023/07/04 10:16:52;;;;;;;2.53;1.55;;;23.10;43.70;;;;;;4840595;29;20050;-50
2023/07/04 10:19:25;;;;;;;3.75;2.00;;;23.20;43.40;;;;;;4839158;29;20057;-49
2023/07/04 10:21:53;;;;;;;5.82;1.67;;;23.30;43.50;;;;;;4839168;29;20072;-49
2023/07/04 10:24:24;;;;;;;5.35;2.55;;;23.50;44.00;;;;;;4837889;29;20120;-51
2023/07/04 10:26:57;;;;;;;6.13;2.13;;;23.60;43.90;;;;;;4840293;29;20141;-50
2023/07/04 10:29:43;;;;;;;4.60;2.38;;;23.70;43.90;;;;;;4839609;29;20070;-50
2023/07/04 10:32:13;;;;;;;6.75;2.80;;;23.90;44.20;;;;;;4838578;29;20042;-51
2023/07/04 10:34:43;;;;;;;3.65;2.03;;;24.00;42.90;;;;;;4838842;29;20491;-50
2023/07/04 10:37:24;;;;;;;7.40;2.60;;;24.10;42.30;;;;;;4840821;29;20073;-49
2023/07/04 10:39:58;;;;;;;4.45;2.05;;;24.30;42.10;;;;;;4838840;29;20054;-51
2023/07/04 10:42:37;;;;;;;5.88;2.45;;;24.30;42.10;;;;;;4839634;29;20136;-50
2023/07/04 10:45:05;;;;;;;7.85;3.28;;;24.50;42.40;;;;;;4838562;29;20128;-53
2023/07/04 10:47:37;;;;;;;10.18;2.78;;;24.60;43.10;;;;;;4840077;29;20042;-50
2023/07/04 10:50:16;;;;;;;5.95;2.10;;;24.70;41.90;;;;;;4839213;29;20050;-50
2023/07/04 10:52:47;;;;;;;4.15;2.15;;;24.80;41.90;;;;;;4836097;29;20053;-50
2023/07/04 10:55:39;;;;;;;5.88;2.75;;;24.90;41.30;;;;;;4839376;29;20101;-50
2023/07/04 10:58:13;;;;;;;4.68;2.25;;;24.90;40.80;;;;;;4839133;29;20038;-53
2023/07/04 11:00:51;;;;;;;4.35;2.50;;;25.00;40.90;;;;;;4839320;29;20053;-51
2023/07/04 11:03:39;;;;;;;5.93;2.40;;;25.00;41.70;;;;;;4838169;29;20463;-51
2023/07/04 11:06:14;;;;;;;5.53;2.78;;;25.00;41.80;;;;;;4835432;29;20441;-50
2023/07/04 11:08:41;;;;;;;4.93;2.45;;;25.00;41.10;;;;;;4839347;29;20536;-50
2023/07/04 11:11:11;;;;;;;5.20;2.05;;;25.10;40.90;;;;;;4837844;29;20110;-50
2023/07/04 11:13:48;;;;;;;6.20;2.53;;;25.10;41.50;;;;;;4838477;29;20058;-51
2023/07/04 11:16:17;;;;;;;4.38;2.20;;;25.20;40.70;;;;;;4839436;29;20435;-50
2023/07/04 11:18:58;;;;;;;5.32;2.28;;;25.20;40.90;;;;;;4838314;29;20050;-50
2023/07/04 11:21:27;;;;;;;6.32;2.83;;;25.30;41.80;;;;;;4840438;29;20057;-50
2023/07/04 11:24:33;;;;;;;5.85;2.17;;;25.40;41.40;;;;;;4837690;29;20053;-51
2023/07/04 11:27:08;;;;;;;4.38;2.38;;;25.50;41.30;;;;;;4829772;29;20553;-51
2023/07/04 11:29:50;;;;;;;7.05;2.30;;;25.50;40.50;;;;;;4838611;29;20050;-51
2023/07/04 11:32:27;;;;;;;6.13;3.22;;;25.60;40.10;;;;;;4835661;29;20538;-53
2023/07/04 11:35:13;;;;;;;4.68;2.50;;;25.60;40.60;;;;;;4838035;29;20056;-51
2023/07/04 11:37:51;;;;;;;5.10;2.53;;;25.70;40.40;;;;;;4841066;29;20048;-54
2023/07/04 11:40:23;;;;;;;5.22;2.90;;;25.80;40.30;;;;;;4841799;29;20044;-54
2023/07/04 11:42:58;;;;;;;5.85;3.10;;;25.90;40.40;;;;;;4841769;29;20070;-53
2023/07/04 11:45:29;;;;;;;5.82;3.22;;;25.90;39.40;;;;;;4842008;29;20049;-54
2023/07/04 11:48:02;;;;;;;5.10;2.42;;;26.00;40.20;;;;;;4842047;29;20045;-53
2023/07/04 11:50:44;;;;;;;4.75;2.72;;;26.20;39.90;;;;;;4838948;29;20050;-52
2023/07/04 11:53:38;;;;;;;4.40;3.10;;;26.30;39.80;;;;;;4840038;29;20524;-54
2023/07/04 11:56:26;;;;;;;4.63;2.72;;;26.40;39.30;;;;;;4837527;29;20110;-51
2023/07/04 11:59:10;;;;;;;8.43;3.47;;;26.50;39.10;;;;;;4841553;29;20129;-52
2023/07/04 12:01:55;;;;;;;6.25;3.33;;;26.50;39.40;;;;;;4842823;29;20053;-54
2023/07/04 12:04:47;;;;;;;8.57;3.33;;;26.60;39.50;;;;;;4841335;29;20133;-50
2023/07/04 12:07:38;;;;;;;5.32;3.72;;;26.70;39.30;;;;;;4841907;29;20041;-53
2023/07/04 12:10:19;;;;;;;6.03;3.20;;;26.70;38.70;;;;;;4841890;29;20038;-51
2023/07/04 12:13:01;;;;;;;9.63;3.13;;;26.80;39.00;;;;;;4843294;29;20473;-54
2023/07/04 12:15:31;;;;;;;5.45;3.53;;;26.90;38.60;;;;;;4841482;29;20128;-53
2023/07/04 12:18:00;;;;;;;6.68;3.35;;;26.90;38.80;;;;;;4841832;29;20034;-54
2023/07/04 12:20:29;;;;;;;7.13;4.18;;;27.00;39.10;;;;;;4843332;29;20041;-53
2023/07/04 12:23:09;;;;;;;8.10;3.90;;;27.00;38.50;;;;;;4840462;29;20439;-54
2023/07/04 12:25:48;;;;;;;5.28;3.90;;;27.10;38.20;;;;;;4841461;29;21724;-50
2023/07/04 12:28:23;;;;;;;5.22;3.53;;;27.20;38.30;;;;;;4842021;29;20468;-54
2023/07/04 12:31:03;;;;;;;7.32;3.78;;;27.30;37.70;;;;;;4833979;29;20079;-50
2023/07/04 12:33:40;;;;;;;5.38;3.53;;;27.40;38.10;;;;;;4824577;29;20074;-53
2023/07/04 12:36:15;;;;;;;7.65;3.95;;;27.50;38.20;;;;;;4841878;29;20129;-53
2023/07/04 12:38:49;;;;;;;9.25;3.65;;;27.50;37.60;;;;;;4840852;29;20053;-53
2023/07/04 12:41:22;;;;;;;7.45;4.53;;;27.50;37.60;;;;;;4841927;29;20077;-52
2023/07/04 12:43:57;;;;;;;9.48;4.20;;;27.60;37.30;;;;;;4842004;29;20057;-51
2023/07/04 12:46:33;;;;;;;4.88;3.85;;;27.60;37.30;;;;;;4841057;29;20098;-54
2023/07/04 12:49:05;;;;;;;5.90;3.97;;;27.70;36.80;;;;;;4839242;29;20038;-51
2023/07/04 12:51:43;;;;;;;7.45;4.00;;;27.70;36.90;;;;;;4840283;29;20049;-54
2023/07/04 12:54:14;;;;;;;7.95;4.03;;;27.80;37.40;;;;;;4840323;29;20038;-50
2023/07/04 12:56:46;;;;;;;6.70;4.30;;;27.80;37.50;;;;;;4841798;29;20045;-50
2023/07/04 12:59:39;;;;;;;7.25;4.22;;;27.80;37.40;;;;;;4840693;29;20060;-52
2023/07/04 13:02:23;;;;;;;8.07;4.10;;;27.90;37.70;;;;;;4841312;29;20053;-54
2023/07/04 13:05:03;;;;;;;10.15;4.65;;;28.00;37.20;;;;;;4840702;29;20073;-52
2023/07/04 13:07:31;;;;;;;8.85;5.20;;;28.10;37.40;;;;;;4841471;29;20046;-51
2023/07/04 13:09:59;;;;;;;5.95;4.40;;;28.20;36.90;;;;;;4839984;29;20098;-52
2023/07/04 13:12:31;;;;;;;6.07;4.78;;;28.30;36.50;;;;;;4840304;29;20469;-51
2023/07/04 13:15:11;;;;;;;7.15;4.32;;;28.30;36.50;;;;;;4840326;29;20042;-49